CheckWX is a tool to help pilots better visualize weather data.  It is not intended as a substitute for an official pre-flight weather briefing.

19:52:18 UTC

KHWD METAR
Hayward Executive Airport
Hayward, California, USA
Current

58 mins ago

KHWD 291854Z 00000KT 10SM CLR 13/08 A3028 RMK AO2 SLP264 T01280078
Observed
Jan-29 @ 18:54 UTC
Visibility
10 SM
Flight Rules
VFR
Cloud Levels
  • Clear skies
Temperature
13°C / 55°F
Dewpoint
C / 46°F
Humidity
72%
Altimeter
30.28" Hg
Pressure
1025.42 hPa
Previous

2 hours ago

KHWD 291754Z VRB03KT 10SM CLR 11/07 A3028 RMK AO2 SLP265 T01110072 10111 20061 58001
Observed
Jan-29 @ 17:54 UTC
Wind
  • Variable at 3 KTS
Visibility
10 SM
Flight Rules
VFR
Cloud Levels
  • Clear skies
Temperature
11°C / 52°F
Dewpoint
C / 45°F
Humidity
77%
Altimeter
30.28" Hg
Pressure
1025.42 hPa
Previous

3 hours ago

KHWD 291654Z 00000KT 10SM CLR 09/07 A3029 RMK AO2 SLP267 T00940067
Observed
Jan-29 @ 16:54 UTC
Visibility
10 SM
Flight Rules
VFR
Cloud Levels
  • Clear skies
Temperature
C / 48°F
Dewpoint
C / 45°F
Humidity
87%
Altimeter
30.29" Hg
Pressure
1025.72 hPa